Latest Weather Observations for Cocos Island

IDW60801

Issued at 11:32 am WST Thursday 2 July 2015 (issued every 30 minutes, with the page automatically refreshed every 10 minutes)

About weather observations | Map of weather stations | Latest weather observations for WA | Other Formats
Station Details ID: 200284 Name: COCOS ISLAND AIRPORT Lat: -12.19 Lon: 96.83 Height: 3.0 m
Data from the previous 72 hours. | See also: Recent months at Cocos Island
Date/Time
WST
Temp
°C
App
Temp
°C
Dew
Point
Rel
Hum
%
Delta-T
°C
Wind Press
QNH
hPa
Press
MSL
hPa
Rain
since 9 am
mm
Dir
 
Spd
km/h
Gust
km/h
Spd
kts
Gust
kts
02/11:30am 27.8 27.0 23.1 75 3.2 ESE 32 41 17 22 1017.5 - 0.0
02/11:00am 27.7 27.5 22.7 74 3.4 ESE 28 39 15 21 1017.6 1017.6 0.2
02/10:30am 27.2 27.0 22.8 77 3.0 ESE 28 39 15 21 1017.6 - 0.2
02/10:00am 27.6 27.2 22.4 73 3.5 ESE 28 35 15 19 1017.5 - 0.2
02/09:30am 27.1 26.5 22.0 73 3.4 ESE 28 37 15 20 1017.1 - 0.2
02/09:00am 26.9 26.3 22.0 74 3.3 ESE 28 35 15 19 1016.7 - 0.2
02/08:30am 26.8 26.6 22.0 75 3.2 ESE 26 35 14 19 1016.3 - 0.2
02/08:00am 26.7 26.3 22.4 77 2.9 ESE 28 35 15 19 1016.0 1016.0 0.2
02/07:00am 26.6 27.3 22.9 80 2.5 SE 24 30 13 16 1015.5 - 0.2
02/06:30am 26.7 26.1 21.9 75 3.2 ESE 28 33 15 18 1015.2 - 0.2
02/06:00am 26.7 26.2 22.2 76 3.0 ESE 28 35 15 19 1015.2 - 0.2
02/05:30am 26.6 26.9 22.9 80 2.5 SE 26 33 14 18 1015.1 - 0.2
02/05:00am 26.7 27.1 22.5 78 2.8 SE 24 33 13 18 1015.1 1015.1 0.2
02/04:30am 26.6 28.1 23.1 81 2.4 ESE 20 32 11 17 1015.2 - 0.2
02/04:00am 26.6 27.0 22.4 78 2.8 ESE 24 30 13 16 1015.4 - 0.2
02/03:30am 26.6 28.0 22.9 80 2.5 ESE 20 28 11 15 1015.6 - 0.2
02/03:00am 26.5 28.1 22.8 80 2.5 E 19 24 10 13 1015.9 - 0.2
02/02:30am 26.5 27.9 22.5 78 2.7 ESE 19 24 10 13 1016.2 - 0.2
02/02:00am 26.4 27.8 22.5 79 2.6 E 19 26 10 14 1016.5 1016.5 0.2
02/01:30am 26.4 27.8 22.5 79 2.6 E 19 24 10 13 1016.7 - 0.2
02/01:00am 26.4 28.4 22.9 81 2.4 E 17 20 9 11 1016.9 - 0.2
02/12:30am 26.6 27.9 22.4 78 2.8 ESE 19 26 10 14 1017.1 - 0.2
02/12:00am 26.7 27.9 22.5 78 2.8 E 20 28 11 15 1017.3 - 0.2
 
Date/Time
WST
Temp
°C
App
Temp
°C
Dew
Point
Rel
Hum
%
Delta-T
°C
Wind Press
QNH
hPa
Press
MSL
hPa
Rain
since 9 am
mm
Dir
 
Spd
km/h
Gust
km/h
Spd
kts
Gust
kts
01/11:30pm 26.6 28.6 22.9 80 2.5 ESE 17 24 9 13 1017.4 - 0.0
01/11:00pm 26.9 28.5 23.2 80 2.5 E 20 26 11 14 1017.2 1017.2 0.0
01/10:30pm 27.2 28.8 23.2 79 2.7 ESE 20 26 11 14 1017.3 - 0.0
01/10:00pm 27.2 28.0 23.2 79 2.7 ESE 24 30 13 16 1017.1 - 0.0
01/09:30pm 27.2 28.4 23.2 79 2.7 SE 22 28 12 15 1016.8 - 0.0
01/09:00pm 27.3 28.6 23.3 79 2.7 SE 22 30 12 16 1016.6 - 0.0
01/08:30pm 27.3 28.6 23.3 79 2.7 ESE 22 30 12 16 1016.3 - 0.0
01/08:00pm 27.4 28.3 23.3 78 2.8 ESE 24 30 13 16 1015.9 1015.9 0.0
01/07:30pm 27.5 28.4 23.4 78 2.8 SE 24 32 13 17 1015.7 - 0.0
01/07:00pm 27.6 29.5 23.8 80 2.6 SE 20 28 11 15 1015.5 - 0.0
01/06:30pm 27.8 29.1 23.3 76 3.1 SE 22 30 12 16 1015.3 - 0.0
01/06:00pm 27.9 29.4 23.7 78 2.9 ESE 22 28 12 15 1015.1 - 0.0
01/05:30pm 27.9 29.2 23.4 76 3.1 SE 22 30 12 16 1015.0 - 0.0
01/05:00pm 28.3 29.0 23.0 73 3.6 SE 24 28 13 15 1014.9 1014.9 0.0
01/04:30pm 28.4 29.7 23.4 74 3.4 SE 22 30 12 16 1014.9 - 0.0
01/04:00pm 28.6 30.0 23.5 74 3.5 SE 22 28 12 15 1015.1 - 0.0
01/03:30pm 28.8 30.2 23.6 73 3.6 SE 22 28 12 15 1015.3 - 0.0
01/03:00pm 28.6 30.5 23.8 75 3.3 ESE 20 28 11 15 1015.7 - 0.0
01/02:30pm 28.6 30.5 23.7 75 3.4 SE 20 24 11 13 1016.0 - 0.0
01/02:00pm 29.0 31.1 24.1 75 3.4 SE 20 28 11 15 1016.3 1016.3 0.0
01/01:30pm 29.1 31.3 23.9 73 3.6 SE 19 28 10 15 1016.9 - 0.0
01/01:00pm 28.9 30.7 23.5 72 3.7 SE 20 28 11 15 1017.3 - 0.0
01/12:30pm 28.9 31.4 23.8 74 3.5 ESE 17 24 9 13 1017.5 - 0.0
01/12:00pm 28.6 30.3 23.0 71 3.8 SE 19 26 10 14 1017.6 - 0.0
01/11:30am 28.5 30.4 23.5 74 3.4 SE 19 24 10 13 1017.7 - 0.0
01/11:00am 28.0 29.7 23.0 74 3.4 ESE 19 24 10 13 1017.7 1017.7 0.0
01/10:30am 28.1 30.3 23.3 75 3.3 ESE 17 22 9 12 1017.7 - -
01/10:00am 28.0 30.2 23.3 75 3.2 ESE 17 22 9 12 1017.5 - -
01/09:30am 27.6 29.6 22.9 75 3.2 ESE 17 20 9 11 1017.1 - -
01/09:00am 27.2 29.1 22.8 77 3.0 ESE 17 22 9 12 1016.7 - -
01/08:30am 26.6 29.0 22.9 80 2.5 ESE 15 20 8 11 1016.5 - -
01/08:00am 26.5 28.8 22.8 80 2.5 ESE 15 20 8 11 1016.2 1016.2 0.0
01/07:30am 26.5 28.8 22.8 80 2.5 ESE 15 20 8 11 1015.9 - 0.0
01/07:00am 26.5 29.0 23.1 81 2.3 ESE 15 19 8 10 1015.7 - 0.0
01/06:30am 26.5 29.5 23.3 82 2.2 ESE 13 17 7 9 1015.5 - 0.0
01/06:00am 26.5 29.0 23.1 81 2.3 ESE 15 20 8 11 1015.4 - 0.0
01/05:30am 26.6 29.0 22.9 80 2.5 ESE 15 22 8 12 1015.2 - 0.0
01/05:00am 26.7 28.6 22.7 79 2.7 ESE 17 20 9 11 1015.1 1015.1 0.0
01/04:30am 26.6 29.1 23.2 81 2.3 ESE 15 20 8 11 1015.2 - 0.0
01/04:00am 26.5 28.9 23.0 81 2.4 ESE 15 19 8 10 1015.3 - 0.0
01/03:30am 26.6 29.3 23.4 82 2.2 ESE 15 20 8 11 1015.4 - 0.0
01/03:00am 26.6 29.7 23.5 83 2.1 ESE 13 17 7 9 1015.6 - 0.0
01/02:30am 26.5 29.6 23.6 84 2.0 ESE 13 17 7 9 1015.8 - 0.0
01/02:00am 26.3 29.4 23.5 84 1.9 E 13 17 7 9 1015.8 1015.8 0.0
01/01:30am 26.3 29.7 23.4 84 2.0 ESE 11 15 6 8 1015.9 - 0.0
01/01:00am 26.3 29.3 23.4 84 2.0 E 13 15 7 8 1015.9 - 0.0
01/12:30am 26.4 29.4 23.3 83 2.1 E 13 17 7 9 1016.0 - 0.0
01/12:00am 26.4 29.5 23.6 84 1.9 E 13 17 7 9 1016.2 - 0.0
 
Date/Time
WST
Temp
°C
App
Temp
°C
Dew
Point
Rel
Hum
%
Delta-T
°C
Wind Press
QNH
hPa
Press
MSL
hPa
Rain
since 9 am
mm
Dir
 
Spd
km/h
Gust
km/h
Spd
kts
Gust
kts
30/11:30pm 26.6 29.7 23.5 83 2.1 E 13 19 7 10 1016.3 - 0.0
30/11:00pm 26.8 30.1 23.9 84 2.0 E 13 19 7 10 1016.2 1016.2 0.0
30/10:30pm 27.1 28.9 23.6 81 2.4 E 20 24 11 13 1016.1 - 0.0
30/10:00pm 27.2 29.3 23.7 81 2.4 E 19 24 10 13 1016.0 - 0.0
30/09:30pm 27.1 29.5 23.7 81 2.3 E 17 22 9 12 1015.8 - 0.0
30/09:00pm 27.3 28.9 23.2 78 2.8 E 20 26 11 14 1015.5 - 0.0
30/08:30pm 27.3 28.7 22.9 77 3.0 E 20 24 11 13 1015.1 - 0.0
30/08:00pm 27.4 29.0 23.3 78 2.8 E 20 26 11 14 1014.8 1014.8 0.0
30/07:30pm 27.5 28.8 23.4 78 2.8 E 22 28 12 15 1014.5 - 0.0
30/07:00pm 27.7 28.6 23.3 77 3.0 E 24 32 13 17 1014.2 - 0.0
30/06:30pm 28.0 28.9 23.3 75 3.2 E 24 32 13 17 1013.9 - 0.0
30/06:00pm 28.2 29.6 23.5 75 3.2 E 22 28 12 15 1013.8 - 0.0
30/05:30pm 28.6 29.9 24.0 76 3.2 E 24 30 13 16 1013.7 - 0.0
30/05:00pm 28.5 29.6 23.7 75 3.3 E 24 30 13 16 1013.6 1013.6 0.0
30/04:30pm 28.7 29.7 23.5 73 3.6 E 24 32 13 17 1013.5 - 0.0
30/04:00pm 28.9 30.9 24.0 75 3.4 E 20 28 11 15 1013.8 - 0.0
30/03:30pm 28.5 29.6 23.1 72 3.7 E 22 30 12 16 1014.2 - 0.0
30/03:00pm 29.1 31.3 24.2 75 3.4 E 20 30 11 16 1014.6 - 0.0
30/02:30pm 28.9 30.0 23.7 73 3.6 E 24 32 13 17 1015.0 - 0.0
30/02:00pm 28.7 30.4 24.1 76 3.2 E 22 28 12 15 1015.4 1015.4 0.0
30/01:30pm 28.7 30.1 23.6 74 3.5 E 22 30 12 16 1015.6 - 0.0
30/01:00pm 28.8 31.0 24.2 76 3.2 E 20 30 11 16 1015.9 - 0.0
30/12:30pm 28.5 30.5 23.9 76 3.2 E 20 26 11 14 1016.2 - 0.0
30/12:00pm 28.4 29.7 23.4 74 3.4 ESE 22 30 12 16 1016.5 - 0.0
30/11:30am 29.1 31.3 24.0 74 3.5 E 19 30 10 16 1016.4 - 0.0
30/11:00am 28.6 30.5 23.7 75 3.4 E 20 28 11 15 1016.4 1016.4 0.0
30/10:30am 28.3 30.2 23.8 76 3.1 E 20 30 11 16 1016.2 - 0.0
30/10:00am 28.0 29.8 23.6 77 3.0 E 20 28 11 15 1016.1 - 0.0
30/09:30am 27.7 29.8 23.8 79 2.7 E 19 24 10 13 1015.8 - 0.0
30/09:00am 27.4 29.9 23.8 81 2.5 E 17 22 9 12 1015.4 - 0.0
30/08:30am 27.0 29.2 23.9 83 2.1 E 19 28 10 15 1014.9 - 0.0
30/08:00am 26.7 28.9 23.9 84 1.9 E 19 28 10 15 1014.6 1014.6 0.0
30/07:30am 26.9 29.0 24.1 85 1.9 E 20 28 11 15 1014.5 - 0.0
30/07:00am 26.9 28.8 23.7 82 2.2 E 20 28 11 15 1014.3 - 0.0
30/06:30am 26.9 29.1 24.0 84 2.0 E 19 24 10 13 1014.1 - 0.0
30/06:00am 26.9 29.6 24.1 85 1.9 E 17 20 9 11 1014.0 - 0.0
30/05:30am 26.8 29.8 24.0 84 1.9 E 15 20 8 11 1013.9 - 0.0
30/05:00am 26.7 29.8 24.2 86 1.7 E 15 20 8 11 1014.0 1014.0 0.0
30/04:30am 26.8 29.8 24.0 84 1.9 E 15 20 8 11 1014.1 - 0.0
30/04:00am 26.9 29.3 24.3 86 1.8 E 19 22 10 12 1014.2 - 0.0
30/03:30am 26.9 30.1 24.3 86 1.8 E 15 20 8 11 1014.5 - 0.0
30/03:00am 26.9 29.7 24.3 86 1.8 E 17 20 9 11 1014.7 - 0.0
30/02:30am 27.0 30.3 24.5 86 1.7 E 15 20 8 11 1015.0 - 0.0
30/02:00am 26.9 30.1 24.4 86 1.7 E 15 20 8 11 1015.2 1015.2 0.0
30/01:30am 27.2 30.1 24.5 85 1.9 E 17 24 9 13 1015.6 - 0.0
30/01:00am 27.1 30.3 24.4 85 1.9 E 15 22 8 12 1015.7 - 0.0
30/12:30am 27.0 30.2 24.4 86 1.8 E 15 20 8 11 1015.8 - 0.0
30/12:00am 27.1 29.6 24.4 85 1.9 E 19 28 10 15 1016.0 - 0.0
 
Date/Time
WST
Temp
°C
App
Temp
°C
Dew
Point
Rel
Hum
%
Delta-T
°C
Wind Press
QNH
hPa
Press
MSL
hPa
Rain
since 9 am
mm
Dir
 
Spd
km/h
Gust
km/h
Spd
kts
Gust
kts
29/11:30pm 27.3 29.6 24.4 84 2.0 E 20 26 11 14 1016.2 - 0.0
29/11:00pm 27.3 29.8 24.4 84 2.0 E 19 24 10 13 1016.2 1016.2 0.0
29/10:30pm 27.6 30.8 24.9 85 1.9 E 17 22 9 12 1016.1 - 0.0
29/10:00pm 27.7 28.9 24.5 83 2.2 ENE 26 30 14 16 1015.8 - 0.0
29/09:30pm 27.8 28.6 24.5 82 2.3 ENE 28 30 15 16 1015.5 - 0.0
29/09:00pm 28.0 29.1 24.4 81 2.5 E 26 30 14 16 1015.4 - 0.0
29/08:30pm 28.0 29.3 24.7 82 2.3 ENE 26 30 14 16 1015.1 - 0.0
29/08:00pm 28.1 30.6 24.8 82 2.3 ENE 20 26 11 14 1014.8 1014.8 0.0
29/07:30pm 28.1 29.2 24.4 80 2.6 ENE 26 30 14 16 1014.3 - 0.0
29/07:00pm 28.2 29.1 24.6 81 2.5 ENE 28 33 15 18 1014.0 - 0.0
29/06:30pm 28.3 29.8 25.0 82 2.3 E 26 32 14 17 1013.9 - 0.0
29/06:00pm 28.7 30.5 24.8 79 2.7 E 24 30 13 16 1013.6 - 0.0
29/05:30pm 28.9 29.8 24.6 77 3.0 ENE 28 32 15 17 1013.4 - 0.0
29/05:00pm 29.3 30.9 25.2 78 2.9 ENE 26 32 14 17 1013.4 1013.4 0.0
29/04:30pm 29.3 30.8 25.0 77 3.0 ENE 26 30 14 16 1013.5 - 0.0
29/04:00pm 29.3 30.9 25.2 78 2.9 ENE 26 30 14 16 1013.9 - 0.0
29/03:30pm 28.7 30.6 25.0 80 2.6 E 24 30 13 16 1014.2 - 0.0
29/03:00pm 29.0 30.6 25.2 80 2.7 ENE 26 32 14 17 1014.3 - 0.0
29/02:30pm 29.3 30.6 24.7 76 3.2 ENE 26 30 14 16 1014.7 - 0.0
29/02:00pm 29.4 30.8 24.8 76 3.2 ENE 26 30 14 16 1015.2 1015.2 0.0
29/01:30pm 29.4 30.5 25.0 77 3.1 ENE 28 33 15 18 1015.6 - 0.0

Other Formats:

Comma delimited format used in spreadsheet applications
http://www.bom.gov.au/fwo/IDW60801/IDW60801.96996.axf

JavaScript Object Notation format (JSON) in row-major order
http://www.bom.gov.au/fwo/IDW60801/IDW60801.96996.json